createdAt,value
2023-03-21T00:03:30.113Z,101614.69
2023-03-21T00:08:35.966Z,101611.00
2023-03-21T00:13:42.584Z,101606.03
2023-03-21T00:18:52.540Z,101603.56
2023-03-21T00:23:58.136Z,101596.91
2023-03-21T00:29:02.279Z,101594.00
2023-03-21T00:34:06.381Z,101585.03
2023-03-21T00:39:11.887Z,101579.50
2023-03-21T00:44:16.161Z,101578.00
2023-03-21T00:49:20.947Z,101564.03
2023-03-21T00:54:26.499Z,101559.81
2023-03-21T00:59:30.842Z,101560.06
2023-03-21T01:04:35.876Z,101551.44
2023-03-21T01:09:41.244Z,101544.22
2023-03-21T01:14:45.238Z,101541.66
2023-03-21T01:19:52.212Z,101539.16
2023-03-21T01:25:08.728Z,101529.25
2023-03-21T01:30:24.133Z,101525.25
2023-03-21T01:35:32.094Z,101517.09
2023-03-21T01:40:43.058Z,101503.41
2023-03-21T01:46:45.353Z,101505.13
2023-03-21T01:52:29.829Z,101497.53
2023-03-21T01:58:02.296Z,101499.41
2023-03-21T02:03:26.143Z,101495.94
2023-03-21T02:08:46.789Z,101481.75
2023-03-21T02:14:05.650Z,101478.38
2023-03-21T02:20:11.816Z,101477.81
2023-03-21T02:25:57.898Z,101467.63
2023-03-21T02:31:33.368Z,101467.09
2023-03-21T02:36:55.365Z,101462.84
2023-03-21T02:42:08.430Z,101438.34
2023-03-21T02:47:19.399Z,101450.59
2023-03-21T02:52:38.574Z,101433.03
2023-03-21T02:57:48.388Z,101434.59
2023-03-21T03:03:06.290Z,101420.19
2023-03-21T03:08:38.408Z,101429.38
2023-03-21T03:14:25.106Z,101420.38
2023-03-21T03:19:41.691Z,101423.47
2023-03-21T03:25:02.769Z,101418.19
2023-03-21T03:30:13.478Z,101419.13
2023-03-21T03:35:21.482Z,101410.41
2023-03-21T03:40:31.481Z,101411.56
2023-03-21T03:46:01.609Z,101408.75
2023-03-21T03:51:11.612Z,101402.63
2023-03-21T03:56:40.338Z,101394.31
2023-03-21T04:01:44.743Z,101389.50
2023-03-21T04:06:51.652Z,101387.97
2023-03-21T04:12:00.331Z,101385.13
2023-03-21T04:17:04.548Z,101387.13
2023-03-21T04:22:09.502Z,101380.88
2023-03-21T04:27:20.803Z,101371.34
2023-03-21T04:32:42.711Z,101361.53
2023-03-21T04:37:51.472Z,101357.41
2023-03-21T04:42:56.922Z,101347.50
2023-03-21T04:48:00.944Z,101359.41
2023-03-21T04:53:05.129Z,101354.78
2023-03-21T04:58:10.560Z,101357.06
2023-03-21T05:03:19.820Z,101340.75
2023-03-21T05:08:25.286Z,101345.75
2023-03-21T05:13:30.782Z,101343.59
2023-03-21T05:18:35.024Z,101338.16
2023-03-21T05:23:45.799Z,101330.97
2023-03-21T05:28:52.228Z,101342.41
2023-03-21T05:33:56.646Z,101334.88
2023-03-21T05:39:01.918Z,101332.28
2023-03-21T05:44:09.055Z,101332.97
2023-03-21T05:49:14.903Z,101336.28
2023-03-21T05:54:20.339Z,101337.00
2023-03-21T05:59:27.900Z,101336.28
2023-03-21T06:04:34.013Z,101333.47
2023-03-21T06:09:38.344Z,101337.47
2023-03-21T06:14:43.755Z,101333.69
2023-03-21T06:19:58.675Z,101339.34
2023-03-21T06:25:11.932Z,101337.94
2023-03-21T06:30:20.678Z,101339.00
2023-03-21T06:35:41.475Z,101340.19
2023-03-21T06:40:47.335Z,101343.97
2023-03-21T06:45:52.728Z,101354.34
2023-03-21T06:50:58.075Z,101349.41
2023-03-21T06:56:04.971Z,101347.13
2023-03-21T07:01:11.892Z,101362.25
2023-03-21T07:06:28.031Z,101368.09
2023-03-21T07:11:33.907Z,101371.56
2023-03-21T07:16:41.060Z,101354.47
2023-03-21T07:21:45.323Z,101350.44
2023-03-21T07:26:49.292Z,101356.34
2023-03-21T07:31:54.795Z,101356.25
2023-03-21T07:36:59.953Z,101353.50
2023-03-21T07:42:04.022Z,101335.13
2023-03-21T07:47:15.737Z,101333.22
2023-03-21T07:52:19.723Z,101332.63
2023-03-21T07:57:23.740Z,101320.22
2023-03-21T08:02:29.412Z,101326.00
2023-03-21T08:07:33.594Z,101330.72
2023-03-21T08:12:37.641Z,101317.41
2023-03-21T08:17:45.584Z,101304.41
2023-03-21T08:22:51.033Z,101300.38
2023-03-21T08:27:55.646Z,101297.28
2023-03-21T08:33:02.347Z,101286.66
2023-03-21T08:38:06.910Z,101280.88
2023-03-21T08:43:12.323Z,101279.81
2023-03-21T08:48:19.127Z,101277.47
2023-03-21T08:53:23.560Z,101270.09
2023-03-21T08:58:28.227Z,101267.31
2023-03-21T09:03:33.677Z,101273.38
2023-03-21T09:08:37.818Z,101269.34
2023-03-21T09:13:41.813Z,101261.66
2023-03-21T09:18:49.576Z,101254.72
2023-03-21T09:23:56.472Z,101250.22
2023-03-21T09:29:01.040Z,101245.00
2023-03-21T09:34:06.470Z,101247.56
2023-03-21T09:39:11.559Z,101247.81
2023-03-21T09:44:32.964Z,101242.31
2023-03-21T09:49:45.612Z,101238.53
2023-03-21T09:54:50.109Z,101243.09
2023-03-21T09:59:55.848Z,101232.16
2023-03-21T10:05:02.193Z,101228.56
2023-03-21T10:10:07.952Z,101220.44
2023-03-21T10:15:17.411Z,101211.38
2023-03-21T10:20:24.997Z,101223.22
2023-03-21T10:25:36.550Z,101213.13
2023-03-21T10:30:45.957Z,101205.44
2023-03-21T10:35:55.891Z,101200.25
2023-03-21T10:41:00.021Z,101216.16
2023-03-21T10:46:14.433Z,101215.69
2023-03-21T10:51:23.552Z,101208.03
2023-03-21T10:56:30.636Z,101176.25
2023-03-21T11:01:38.819Z,101181.03
2023-03-21T11:06:46.850Z,101192.44
2023-03-21T11:11:54.470Z,101194.91
2023-03-21T11:16:58.789Z,101177.91
2023-03-21T11:22:09.226Z,101176.78
2023-03-21T11:27:13.705Z,101187.63
2023-03-21T11:32:26.110Z,101195.19
2023-03-21T11:37:34.861Z,101180.75
2023-03-21T11:42:45.071Z,101169.63
2023-03-21T11:47:50.720Z,101169.66
